createdAt,value
2022-12-20T00:00:09.285Z,38.05
2022-12-20T00:00:33.630Z,38.08
2022-12-20T00:01:00.459Z,37.10
2022-12-20T00:01:15.686Z,36.95
2022-12-20T00:01:30.974Z,36.42
2022-12-20T00:01:43.706Z,36.58
2022-12-20T00:01:56.495Z,37.03
2022-12-20T00:02:10.296Z,37.30
2022-12-20T00:02:23.355Z,37.15
2022-12-20T00:02:37.572Z,36.97
2022-12-20T00:02:50.284Z,36.42
2022-12-20T00:03:03.116Z,35.97
2022-12-20T00:03:16.527Z,35.95
2022-12-20T00:03:29.125Z,36.38
2022-12-20T00:03:42.139Z,36.40
2022-12-20T00:03:57.066Z,35.38
2022-12-20T00:04:12.657Z,34.38
2022-12-20T00:04:25.259Z,34.78
2022-12-20T00:04:37.891Z,34.85
2022-12-20T00:04:50.507Z,35.17
2022-12-20T00:05:03.243Z,35.13
2022-12-20T00:05:17.012Z,35.32
2022-12-20T00:05:29.575Z,35.25
2022-12-20T00:05:43.303Z,35.30
2022-12-20T00:05:55.881Z,35.13
2022-12-20T00:06:08.883Z,35.67
2022-12-20T00:06:22.357Z,35.78
2022-12-20T00:06:37.209Z,35.70
2022-12-20T00:06:50.056Z,35.88
2022-12-20T00:07:02.705Z,36.25
2022-12-20T00:07:15.317Z,36.47
2022-12-20T00:07:27.893Z,36.40
2022-12-20T00:07:40.520Z,35.88
2022-12-20T00:07:54.181Z,35.88
2022-12-20T00:08:07.155Z,36.45
2022-12-20T00:08:19.763Z,36.10
2022-12-20T00:08:32.575Z,35.28
2022-12-20T00:08:45.496Z,35.35
2022-12-20T00:09:00.296Z,34.90
2022-12-20T00:09:13.948Z,35.03
2022-12-20T00:09:26.539Z,35.40
2022-12-20T00:09:39.191Z,35.53
2022-12-20T00:09:51.776Z,35.03
2022-12-20T00:10:05.229Z,34.65
2022-12-20T00:10:17.812Z,35.70
2022-12-20T00:10:31.415Z,37.03
2022-12-20T00:10:45.886Z,36.75
2022-12-20T00:11:00.955Z,35.65
2022-12-20T00:11:14.290Z,35.33
2022-12-20T00:11:28.005Z,35.45
2022-12-20T00:11:42.728Z,36.13
2022-12-20T00:11:55.323Z,36.05
2022-12-20T00:12:08.009Z,35.72
2022-12-20T00:12:20.586Z,35.88
2022-12-20T00:12:33.182Z,35.28
2022-12-20T00:12:45.759Z,35.35
2022-12-20T00:12:58.329Z,35.45
2022-12-20T00:13:13.409Z,34.88
2022-12-20T00:13:26.015Z,34.35
2022-12-20T00:13:39.245Z,34.28
2022-12-20T00:13:52.117Z,34.22
2022-12-20T00:14:04.874Z,34.10
2022-12-20T00:14:17.987Z,34.05
2022-12-20T00:14:31.587Z,34.53
2022-12-20T00:14:44.202Z,34.05
2022-12-20T00:14:56.825Z,33.83
2022-12-20T00:15:10.085Z,33.90
2022-12-20T00:15:22.949Z,34.30
2022-12-20T00:15:36.076Z,35.05
2022-12-20T00:15:48.686Z,35.17
2022-12-20T00:16:06.797Z,35.38
2022-12-20T00:16:21.897Z,35.00
2022-12-20T00:16:35.862Z,34.63
2022-12-20T00:16:48.517Z,33.67
2022-12-20T00:17:01.121Z,34.08
2022-12-20T00:17:13.777Z,34.97
2022-12-20T00:17:26.544Z,34.30
2022-12-20T00:17:40.639Z,33.25
2022-12-20T00:17:54.376Z,32.00
2022-12-20T00:18:07.338Z,31.75
2022-12-20T00:18:20.010Z,32.38
2022-12-20T00:18:32.705Z,32.05
2022-12-20T00:18:45.683Z,31.48
2022-12-20T00:18:59.853Z,31.67
2022-12-20T00:19:13.816Z,32.40
2022-12-20T00:19:26.416Z,31.80
2022-12-20T00:19:39.273Z,31.98
2022-12-20T00:19:51.903Z,32.42
2022-12-20T00:20:05.910Z,32.72
2022-12-20T00:20:18.523Z,32.15
2022-12-20T00:20:32.425Z,31.98
2022-12-20T00:20:45.022Z,32.30
2022-12-20T00:20:58.553Z,32.67
2022-12-20T00:21:13.023Z,32.53
2022-12-20T00:21:25.976Z,31.95
2022-12-20T00:21:38.677Z,31.88
2022-12-20T00:21:52.319Z,32.58
2022-12-20T00:22:04.977Z,32.58
2022-12-20T00:22:17.581Z,32.45
2022-12-20T00:22:30.185Z,32.30
2022-12-20T00:22:42.805Z,33.15
2022-12-20T00:22:55.944Z,32.78
2022-12-20T00:23:08.539Z,32.50
2022-12-20T00:23:21.148Z,32.58
2022-12-20T00:23:36.201Z,33.42
2022-12-20T00:23:49.034Z,32.88
2022-12-20T00:24:01.808Z,32.42
2022-12-20T00:24:15.615Z,32.50
2022-12-20T00:24:30.900Z,32.13
2022-12-20T00:24:44.617Z,32.92
2022-12-20T00:24:57.191Z,33.30
2022-12-20T00:25:10.035Z,32.97
2022-12-20T00:25:22.864Z,33.30
2022-12-20T00:25:35.519Z,32.92
2022-12-20T00:25:48.094Z,33.13
2022-12-20T00:26:02.023Z,32.83
2022-12-20T00:26:18.194Z,32.40
2022-12-20T00:26:33.179Z,32.80
2022-12-20T00:26:45.883Z,33.25
2022-12-20T00:26:58.530Z,32.72
2022-12-20T00:27:12.126Z,32.78
2022-12-20T00:27:24.904Z,32.42
2022-12-20T00:27:37.499Z,31.92
2022-12-20T00:27:50.693Z,31.83
2022-12-20T00:28:04.260Z,31.77
2022-12-20T00:28:16.927Z,32.03
2022-12-20T00:28:29.838Z,32.13
2022-12-20T00:28:43.208Z,31.65
2022-12-20T00:28:57.148Z,31.45
2022-12-20T00:29:09.807Z,31.27
2022-12-20T00:29:22.419Z,30.95
2022-12-20T00:29:35.474Z,30.95
2022-12-20T00:29:48.095Z,31.40
2022-12-20T00:30:00.689Z,31.42
2022-12-20T00:30:14.275Z,30.58
2022-12-20T00:30:28.038Z,30.52
2022-12-20T00:30:40.638Z,30.75
2022-12-20T00:30:54.172Z,30.63
2022-12-20T00:31:12.517Z,31.15
2022-12-20T00:31:26.664Z,31.35
2022-12-20T00:31:39.923Z,30.77
2022-12-20T00:31:52.771Z,30.55
2022-12-20T00:32:06.614Z,30.40
2022-12-20T00:32:19.202Z,30.88
2022-12-20T00:32:32.116Z,31.15
2022-12-20T00:32:46.387Z,30.92
2022-12-20T00:32:58.974Z,30.98
2022-12-20T00:33:11.570Z,30.63
2022-12-20T00:33:24.334Z,30.90
2022-12-20T00:33:39.728Z,30.50
2022-12-20T00:33:55.228Z,29.90
2022-12-20T00:34:07.815Z,30.00
2022-12-20T00:34:21.048Z,30.05
2022-12-20T00:34:33.691Z,29.92
2022-12-20T00:34:46.309Z,29.80
2022-12-20T00:34:59.924Z,29.75
2022-12-20T00:35:13.165Z,30.00
2022-12-20T00:35:25.828Z,30.55
2022-12-20T00:35:42.617Z,29.83
2022-12-20T00:35:56.274Z,28.95
2022-12-20T00:36:09.621Z,29.63
2022-12-20T00:36:24.822Z,29.83
2022-12-20T00:36:39.623Z,30.08
2022-12-20T00:36:52.476Z,30.40
2022-12-20T00:37:05.137Z,29.63
2022-12-20T00:37:17.710Z,28.70
2022-12-20T00:37:30.387Z,28.63
2022-12-20T00:37:43.005Z,29.38
2022-12-20T00:37:56.560Z,29.70
2022-12-20T00:38:09.150Z,29.80
2022-12-20T00:38:21.772Z,29.98
2022-12-20T00:38:34.673Z,30.23
2022-12-20T00:38:48.824Z,30.02
2022-12-20T00:39:01.599Z,29.77
2022-12-20T00:39:14.231Z,29.65
2022-12-20T00:39:27.812Z,29.60
2022-12-20T00:39:40.402Z,29.58
2022-12-20T00:39:53.016Z,29.65
2022-12-20T00:40:07.232Z,30.27
2022-12-20T00:40:19.979Z,30.13
2022-12-20T00:40:32.590Z,29.88
2022-12-20T00:40:45.181Z,30.00
2022-12-20T00:41:02.912Z,30.30
2022-12-20T00:41:18.006Z,30.52
2022-12-20T00:41:32.307Z,30.30
2022-12-20T00:41:44.991Z,30.80
2022-12-20T00:41:57.601Z,31.20
2022-12-20T00:42:10.196Z,31.98
2022-12-20T00:42:23.042Z,31.40
2022-12-20T00:42:36.711Z,31.05
2022-12-20T00:42:49.286Z,31.55
2022-12-20T00:43:01.936Z,31.27
2022-12-20T00:43:14.509Z,30.52
2022-12-20T00:43:27.206Z,30.08
2022-12-20T00:43:40.635Z,30.00
2022-12-20T00:43:53.538Z,30.80
2022-12-20T00:44:07.102Z,30.75
2022-12-20T00:44:19.679Z,30.55
2022-12-20T00:44:32.283Z,31.00
2022-12-20T00:44:44.862Z,30.58
2022-12-20T00:44:57.462Z,29.90
2022-12-20T00:45:10.713Z,30.27
2022-12-20T00:45:23.314Z,31.17
2022-12-20T00:45:36.220Z,30.98
2022-12-20T00:45:48.880Z,29.95
2022-12-20T00:46:02.842Z,30.05
2022-12-20T00:46:16.961Z,30.38
2022-12-20T00:46:31.673Z,30.42
2022-12-20T00:46:44.522Z,29.98
2022-12-20T00:46:57.190Z,29.77
2022-12-20T00:47:10.231Z,29.98
2022-12-20T00:47:23.910Z,30.33
2022-12-20T00:47:36.537Z,30.70
2022-12-20T00:47:50.467Z,30.52
2022-12-20T00:48:03.075Z,30.42
2022-12-20T00:48:15.663Z,30.63
2022-12-20T00:48:29.985Z,30.27
2022-12-20T00:48:42.608Z,29.33
2022-12-20T00:48:57.217Z,29.08
2022-12-20T00:49:09.793Z,29.05
2022-12-20T00:49:22.560Z,29.20
2022-12-20T00:49:35.191Z,29.83
2022-12-20T00:49:48.093Z,30.20
2022-12-20T00:50:00.682Z,30.17
2022-12-20T00:50:13.713Z,29.77
2022-12-20T00:50:27.339Z,29.70
2022-12-20T00:50:39.926Z,30.08
2022-12-20T00:50:52.998Z,29.95
2022-12-20T00:51:07.626Z,29.30
2022-12-20T00:51:22.736Z,29.52
2022-12-20T00:51:35.390Z,30.10
2022-12-20T00:51:48.993Z,30.67
2022-12-20T00:52:01.583Z,30.65
2022-12-20T00:52:14.173Z,30.88
2022-12-20T00:52:26.776Z,30.23
2022-12-20T00:52:39.433Z,29.88
2022-12-20T00:52:51.992Z,29.50
2022-12-20T00:53:04.608Z,30.27
2022-12-20T00:53:24.447Z,29.30
2022-12-20T00:53:39.579Z,29.50
2022-12-20T00:53:52.967Z,29.38
2022-12-20T00:54:05.858Z,29.10
2022-12-20T00:54:19.462Z,29.02
2022-12-20T00:54:32.045Z,29.45
2022-12-20T00:54:44.706Z,29.38
2022-12-20T00:54:57.305Z,28.77
2022-12-20T00:55:09.990Z,29.13
2022-12-20T00:55:22.662Z,29.60
2022-12-20T00:55:35.378Z,30.08
2022-12-20T00:55:47.981Z,30.10
2022-12-20T00:56:01.658Z,29.60
2022-12-20T00:56:14.784Z,29.50
2022-12-20T00:56:27.567Z,29.60
2022-12-20T00:56:40.166Z,29.15
2022-12-20T00:56:52.760Z,29.70
2022-12-20T00:57:05.451Z,29.75
2022-12-20T00:57:19.030Z,29.73
2022-12-20T00:57:31.627Z,30.05
2022-12-20T00:57:44.208Z,29.83
2022-12-20T00:57:56.872Z,29.02
2022-12-20T00:58:09.572Z,29.40
2022-12-20T00:58:22.374Z,29.20
2022-12-20T00:58:37.574Z,29.85
2022-12-20T00:58:50.450Z,30.17
2022-12-20T00:59:03.045Z,29.75
2022-12-20T00:59:15.716Z,29.75
2022-12-20T00:59:28.313Z,30.05
2022-12-20T00:59:40.905Z,29.88
2022-12-20T00:59:54.537Z,29.65
2022-12-20T01:00:08.401Z,30.23
2022-12-20T01:00:21.434Z,30.15
2022-12-20T01:00:34.060Z,29.77
2022-12-20T01:00:52.250Z,29.25
2022-12-20T01:01:18.725Z,30.23
2022-12-20T01:01:34.846Z,29.73
2022-12-20T01:01:48.316Z,29.33
2022-12-20T01:02:01.180Z,29.27
2022-12-20T01:02:14.059Z,29.35
2022-12-20T01:02:27.266Z,30.38
2022-12-20T01:02:40.074Z,30.77
2022-12-20T01:02:54.287Z,30.02
2022-12-20T01:03:08.818Z,29.08
2022-12-20T01:03:22.158Z,28.58
2022-12-20T01:03:35.131Z,28.60
2022-12-20T01:03:48.026Z,29.02
2022-12-20T01:04:01.491Z,29.25
2022-12-20T01:04:15.119Z,29.30
2022-12-20T01:04:27.845Z,29.38
2022-12-20T01:04:40.423Z,29.73
2022-12-20T01:04:53.045Z,29.85
2022-12-20T01:05:06.316Z,30.38
2022-12-20T01:05:19.115Z,29.73
2022-12-20T01:05:31.849Z,29.08
2022-12-20T01:05:52.940Z,29.05
2022-12-20T01:06:05.955Z,29.08
2022-12-20T01:06:19.618Z,28.83
2022-12-20T01:06:32.535Z,28.85
2022-12-20T01:06:45.456Z,30.00
2022-12-20T01:06:58.995Z,30.27
2022-12-20T01:07:11.575Z,29.17
2022-12-20T01:07:24.725Z,29.00
2022-12-20T01:07:37.324Z,29.25
2022-12-20T01:07:49.910Z,30.02
2022-12-20T01:08:02.551Z,30.23
2022-12-20T01:08:15.592Z,30.30
2022-12-20T01:08:30.817Z,28.96
2022-12-20T01:08:43.818Z,28.45
2022-12-20T01:08:56.873Z,28.98
2022-12-20T01:09:10.950Z,28.85
2022-12-20T01:09:23.532Z,28.92
2022-12-20T01:09:36.120Z,28.73
2022-12-20T01:09:50.373Z,29.20
2022-12-20T01:10:03.141Z,29.54
2022-12-20T01:10:15.853Z,29.58
2022-12-20T01:10:28.532Z,29.02
2022-12-20T01:10:41.173Z,28.98
2022-12-20T01:11:00.362Z,29.52
2022-12-20T01:11:15.797Z,29.83
2022-12-20T01:11:33.211Z,28.92
2022-12-20T01:11:45.797Z,29.88
2022-12-20T01:11:58.416Z,30.35
2022-12-20T01:12:11.458Z,29.83
2022-12-20T01:12:24.055Z,29.30
2022-12-20T01:12:36.634Z,29.05
2022-12-20T01:12:49.271Z,29.30
2022-12-20T01:13:02.872Z,29.13
2022-12-20T01:13:15.471Z,29.90
2022-12-20T01:13:29.480Z,30.50
2022-12-20T01:13:44.303Z,30.30
2022-12-20T01:14:02.257Z,29.48
2022-12-20T01:14:16.016Z,30.05
2022-12-20T01:14:29.659Z,30.88
2022-12-20T01:14:42.349Z,31.05
2022-12-20T01:14:55.241Z,31.40
2022-12-20T01:15:09.027Z,31.65
2022-12-20T01:15:21.862Z,33.08
2022-12-20T01:15:35.343Z,33.47
2022-12-20T01:15:47.937Z,33.28
2022-12-20T01:16:04.907Z,33.42
2022-12-20T01:16:22.175Z,33.85
2022-12-20T01:16:37.587Z,32.60
2022-12-20T01:16:50.312Z,32.55
2022-12-20T01:17:03.046Z,33.55
2022-12-20T01:17:15.677Z,32.80
2022-12-20T01:17:29.257Z,31.85
2022-12-20T01:17:41.997Z,30.73
2022-12-20T01:17:55.976Z,29.95
2022-12-20T01:18:08.614Z,28.83
2022-12-20T01:18:21.780Z,29.13
2022-12-20T01:18:34.544Z,29.70
2022-12-20T01:18:48.473Z,30.55
2022-12-20T01:19:02.930Z,30.83
2022-12-20T01:19:17.294Z,30.85
2022-12-20T01:19:29.889Z,30.67
2022-12-20T01:19:42.756Z,30.58
2022-12-20T01:19:55.345Z,30.50
2022-12-20T01:20:08.816Z,30.55
2022-12-20T01:20:21.417Z,31.30
2022-12-20T01:20:34.032Z,31.30
2022-12-20T01:20:47.612Z,31.30
2022-12-20T01:21:05.092Z,31.05
2022-12-20T01:21:19.922Z,31.13
2022-12-20T01:21:32.962Z,30.98
2022-12-20T01:21:45.608Z,30.75
2022-12-20T01:21:58.290Z,30.13
2022-12-20T01:22:11.846Z,30.88
2022-12-20T01:22:24.436Z,30.77
2022-12-20T01:22:41.042Z,30.85
2022-12-20T01:22:56.395Z,30.63
2022-12-20T01:23:08.999Z,31.17
2022-12-20T01:23:21.596Z,31.35
2022-12-20T01:23:34.309Z,31.70
2022-12-20T01:23:48.868Z,31.20
2022-12-20T01:24:01.752Z,30.58
2022-12-20T01:24:16.664Z,30.10
2022-12-20T01:24:29.258Z,30.30
2022-12-20T01:24:41.894Z,29.80
2022-12-20T01:24:54.558Z,29.60
2022-12-20T01:25:07.916Z,29.45
2022-12-20T01:25:21.522Z,29.23
2022-12-20T01:25:34.096Z,29.80
2022-12-20T01:25:47.522Z,30.80
2022-12-20T01:26:01.264Z,30.60
2022-12-20T01:26:16.341Z,29.73
2022-12-20T01:26:30.239Z,29.92
2022-12-20T01:26:43.464Z,30.60
2022-12-20T01:26:57.064Z,31.23
2022-12-20T01:27:09.654Z,31.38
2022-12-20T01:27:22.449Z,31.02
2022-12-20T01:27:35.108Z,30.88
2022-12-20T01:27:47.704Z,29.90
2022-12-20T01:28:00.350Z,29.42
2022-12-20T01:28:12.950Z,29.73
2022-12-20T01:28:25.943Z,30.20
2022-12-20T01:28:40.734Z,30.08
2022-12-20T01:28:55.943Z,29.50
2022-12-20T01:29:08.645Z,29.67
2022-12-20T01:29:21.644Z,29.85
2022-12-20T01:29:34.267Z,30.02
2022-12-20T01:29:46.893Z,29.90
2022-12-20T01:29:59.450Z,29.70
2022-12-20T01:30:13.845Z,29.15
2022-12-20T01:30:26.468Z,29.10
2022-12-20T01:30:40.666Z,30.33
2022-12-20T01:30:53.292Z,31.17
2022-12-20T01:31:07.736Z,30.48
2022-12-20T01:31:20.747Z,29.08
2022-12-20T01:31:35.071Z,28.67
2022-12-20T01:31:47.710Z,28.85
2022-12-20T01:32:00.442Z,28.75
2022-12-20T01:32:13.124Z,28.48
2022-12-20T01:32:26.080Z,28.40
2022-12-20T01:32:38.675Z,28.98
2022-12-20T01:32:51.276Z,29.02
2022-12-20T01:33:05.347Z,27.90
2022-12-20T01:33:18.963Z,28.02
2022-12-20T01:33:31.653Z,28.27
2022-12-20T01:33:45.332Z,28.38
2022-12-20T01:33:58.755Z,28.75
2022-12-20T01:34:11.875Z,29.02
2022-12-20T01:34:24.460Z,29.42
2022-12-20T01:34:38.084Z,28.83
2022-12-20T01:34:50.803Z,28.40
2022-12-20T01:35:04.034Z,29.50
2022-12-20T01:35:16.817Z,29.60
2022-12-20T01:35:29.411Z,29.30
2022-12-20T01:35:42.078Z,29.30
2022-12-20T01:35:59.869Z,29.42
2022-12-20T01:36:16.674Z,28.00
2022-12-20T01:36:32.065Z,27.95
2022-12-20T01:36:44.934Z,28.73
2022-12-20T01:36:57.539Z,28.88
2022-12-20T01:37:10.367Z,28.88
2022-12-20T01:37:22.968Z,29.05
2022-12-20T01:37:35.602Z,28.98
2022-12-20T01:37:49.582Z,29.08
2022-12-20T01:38:02.227Z,29.42
2022-12-20T01:38:14.831Z,28.55
2022-12-20T01:38:28.435Z,28.85
2022-12-20T01:38:41.418Z,29.08
2022-12-20T01:38:57.562Z,29.45
2022-12-20T01:39:14.625Z,30.20
2022-12-20T01:39:27.223Z,29.08
2022-12-20T01:39:39.875Z,27.88
2022-12-20T01:39:52.577Z,28.15
2022-12-20T01:40:06.527Z,28.27
2022-12-20T01:40:19.723Z,28.35
2022-12-20T01:40:32.324Z,28.33
2022-12-20T01:40:44.926Z,28.40
2022-12-20T01:40:59.065Z,28.27
2022-12-20T01:41:15.581Z,28.15
2022-12-20T01:41:30.760Z,27.63
2022-12-20T01:41:45.514Z,28.05
2022-12-20T01:41:59.240Z,28.25
2022-12-20T01:42:14.537Z,28.60
2022-12-20T01:42:27.137Z,28.83
2022-12-20T01:42:39.703Z,28.40
2022-12-20T01:42:52.351Z,28.17
2022-12-20T01:43:04.996Z,28.85
2022-12-20T01:43:19.093Z,28.80
2022-12-20T01:43:48.761Z,28.42
2022-12-20T01:44:04.598Z,28.40
2022-12-20T01:44:53.193Z,28.35
2022-12-20T01:45:13.402Z,27.38
2022-12-20T01:45:31.636Z,27.60
2022-12-20T01:45:44.597Z,27.38
2022-12-20T01:45:57.293Z,27.38
2022-12-20T01:46:10.002Z,27.77
2022-12-20T01:46:25.204Z,28.00
2022-12-20T01:46:37.872Z,28.13
2022-12-20T01:46:51.857Z,28.73
2022-12-20T01:47:05.575Z,29.10
2022-12-20T01:47:18.212Z,28.80
2022-12-20T01:47:34.495Z,28.20
2022-12-20T01:47:47.786Z,28.05
2022-12-20T01:48:01.388Z,28.05
2022-12-20T01:48:18.972Z,27.95
2022-12-20T01:48:31.645Z,28.67
2022-12-20T01:48:49.197Z,28.33
2022-12-20T01:49:07.145Z,28.15
2022-12-20T01:49:22.910Z,28.42
2022-12-20T01:49:40.702Z,28.70
2022-12-20T01:49:57.630Z,28.70
2022-12-20T01:50:10.320Z,28.45
2022-12-20T01:50:23.578Z,28.60
2022-12-20T01:50:37.473Z,28.55
2022-12-20T01:50:51.848Z,28.55
2022-12-20T01:51:05.040Z,28.48
2022-12-20T01:51:18.899Z,27.75
2022-12-20T01:51:34.335Z,27.33
2022-12-20T01:51:50.772Z,26.67
2022-12-20T01:52:07.632Z,27.60
2022-12-20T01:52:30.207Z,28.42
2022-12-20T01:52:46.904Z,27.48
2022-12-20T01:53:00.198Z,27.55
2022-12-20T01:53:12.858Z,27.45
2022-12-20T01:53:25.555Z,26.85
2022-12-20T01:53:38.912Z,26.98
2022-12-20T01:53:57.209Z,26.92
2022-12-20T01:54:14.258Z,27.65
2022-12-20T01:54:31.993Z,28.23
2022-12-20T01:54:48.847Z,28.48
2022-12-20T01:55:07.340Z,27.95
2022-12-20T01:55:23.500Z,27.58
2022-12-20T01:55:37.834Z,27.67
2022-12-20T01:55:50.858Z,27.95
2022-12-20T01:56:06.831Z,28.42
2022-12-20T01:56:19.482Z,28.08
2022-12-20T01:56:32.247Z,27.52
2022-12-20T01:56:50.443Z,27.20
2022-12-20T01:57:07.039Z,27.73
2022-12-20T01:57:25.281Z,27.90
2022-12-20T01:57:43.997Z,27.70
2022-12-20T01:58:02.004Z,28.27
2022-12-20T01:58:16.947Z,28.33
2022-12-20T01:58:30.409Z,28.05
2022-12-20T01:58:47.294Z,28.17
2022-12-20T01:59:01.048Z,28.27
2022-12-20T01:59:14.180Z,28.42
2022-12-20T01:59:28.702Z,28.55
2022-12-20T01:59:46.613Z,28.33
2022-12-20T01:59:59.330Z,27.75
2022-12-20T02:00:14.087Z,26.70
2022-12-20T02:00:26.832Z,26.88
2022-12-20T02:00:39.510Z,27.67
2022-12-20T02:00:52.234Z,27.45
2022-12-20T02:01:05.754Z,27.15
2022-12-20T02:01:18.702Z,27.67
2022-12-20T02:01:32.628Z,27.63
2022-12-20T02:01:46.250Z,27.30
2022-12-20T02:02:03.650Z,27.85
2022-12-20T02:02:16.705Z,27.85
2022-12-20T02:02:29.644Z,27.20
2022-12-20T02:02:43.944Z,27.02
2022-12-20T02:03:02.520Z,27.63
2022-12-20T02:03:17.159Z,28.02
2022-12-20T02:03:31.063Z,27.83
2022-12-20T02:03:44.472Z,27.36
2022-12-20T02:03:57.090Z,27.77
2022-12-20T02:04:10.034Z,28.10
2022-12-20T02:04:22.610Z,27.42
2022-12-20T02:04:35.470Z,27.30
2022-12-20T02:04:49.060Z,27.33
2022-12-20T02:05:02.173Z,27.10
2022-12-20T02:05:15.396Z,26.52
2022-12-20T02:05:28.066Z,26.75
2022-12-20T02:05:43.340Z,27.38
2022-12-20T02:05:55.923Z,27.40
2022-12-20T02:06:18.228Z,27.52
2022-12-20T02:06:31.832Z,26.90
2022-12-20T02:06:44.403Z,27.08
2022-12-20T02:06:58.129Z,27.02
2022-12-20T02:07:17.495Z,27.48
2022-12-20T02:07:35.015Z,27.23
2022-12-20T02:07:51.738Z,27.52
2022-12-20T02:08:07.291Z,27.67
2022-12-20T02:08:20.639Z,28.00
2022-12-20T02:08:33.304Z,28.25
2022-12-20T02:08:48.672Z,27.65
2022-12-20T02:09:04.672Z,27.08
2022-12-20T02:09:17.685Z,27.40
2022-12-20T02:09:33.342Z,28.40
2022-12-20T02:09:46.735Z,28.08
2022-12-20T02:10:01.526Z,27.70
2022-12-20T02:10:14.664Z,28.58
2022-12-20T02:10:35.892Z,28.10
2022-12-20T02:11:02.953Z,27.45
2022-12-20T02:11:31.060Z,27.25
2022-12-20T02:11:58.389Z,27.05
2022-12-20T02:12:14.456Z,27.50
2022-12-20T02:12:31.834Z,27.15
2022-12-20T02:12:46.325Z,27.13
2022-12-20T02:13:08.742Z,27.27
2022-12-20T02:13:29.700Z,26.98
2022-12-20T02:13:51.663Z,27.33
2022-12-20T02:14:14.621Z,26.67
2022-12-20T02:14:36.652Z,26.52
2022-12-20T02:15:05.928Z,26.65
2022-12-20T02:15:40.026Z,26.20
2022-12-20T02:15:56.013Z,26.75
2022-12-20T02:16:10.950Z,26.55
2022-12-20T02:16:28.096Z,26.52
2022-12-20T02:16:48.709Z,27.40
2022-12-20T02:17:11.055Z,28.08
2022-12-20T02:17:35.856Z,27.00
2022-12-20T02:17:58.778Z,26.77
2022-12-20T02:18:22.636Z,27.17
2022-12-20T02:18:42.015Z,27.30
2022-12-20T02:19:01.747Z,26.48
2022-12-20T02:19:44.560Z,27.40
2022-12-20T02:20:25.765Z,27.00
2022-12-20T02:21:07.654Z,27.05
2022-12-20T02:21:31.930Z,26.83
2022-12-20T02:21:51.125Z,27.38
2022-12-20T02:22:15.264Z,27.67
2022-12-20T02:22:42.173Z,27.08
2022-12-20T02:23:17.904Z,27.00
2022-12-20T02:24:01.052Z,27.27
2022-12-20T02:25:05.902Z,27.30
2022-12-20T02:25:42.592Z,27.63
2022-12-20T02:26:13.486Z,26.77
2022-12-20T02:26:46.491Z,26.73
2022-12-20T02:27:29.339Z,26.92
2022-12-20T02:27:51.111Z,26.25
2022-12-20T02:28:11.769Z,26.55
2022-12-20T02:28:43.416Z,26.20
2022-12-20T02:29:10.937Z,26.48
2022-12-20T02:29:27.101Z,25.73
2022-12-20T02:29:58.148Z,25.63
2022-12-20T02:30:15.513Z,26.25
2022-12-20T02:30:32.673Z,27.48
2022-12-20T02:30:49.581Z,26.95
2022-12-20T02:31:06.919Z,27.15
2022-12-20T02:31:27.715Z,27.00
2022-12-20T02:31:44.337Z,26.17
2022-12-20T02:32:04.121Z,26.92
2022-12-20T02:32:22.525Z,26.75
2022-12-20T02:32:39.600Z,26.65
2022-12-20T02:32:57.976Z,26.70
2022-12-20T02:33:13.042Z,26.02
2022-12-20T02:33:28.455Z,25.98
2022-12-20T02:33:43.959Z,26.38
2022-12-20T02:33:59.049Z,26.17
2022-12-20T02:34:12.904Z,25.80
2022-12-20T02:34:26.687Z,25.92
2022-12-20T02:34:41.631Z,26.02
2022-12-20T02:34:56.265Z,26.48
2022-12-20T02:35:12.937Z,26.80
2022-12-20T02:35:27.925Z,25.98
2022-12-20T02:35:41.901Z,25.30
2022-12-20T02:35:54.623Z,26.08
2022-12-20T02:36:07.779Z,27.02
2022-12-20T02:36:21.453Z,26.40
2022-12-20T02:36:34.129Z,26.48
2022-12-20T02:36:46.731Z,27.02
2022-12-20T02:36:59.520Z,26.67
2022-12-20T02:37:12.305Z,26.27
2022-12-20T02:37:25.671Z,26.15
2022-12-20T02:37:47.763Z,26.17
2022-12-20T02:38:03.604Z,27.25
2022-12-20T02:38:29.993Z,26.85
2022-12-20T02:38:42.580Z,26.77
2022-12-20T02:38:55.353Z,26.95
2022-12-20T02:39:10.248Z,27.27
2022-12-20T02:39:25.042Z,26.85
2022-12-20T02:39:41.415Z,26.60
2022-12-20T02:39:54.352Z,26.25
2022-12-20T02:40:08.427Z,26.65
2022-12-20T02:40:24.799Z,27.60
2022-12-20T02:40:40.924Z,27.15
2022-12-20T02:40:59.194Z,26.17
2022-12-20T02:41:16.035Z,26.35
2022-12-20T02:41:34.153Z,27.08
2022-12-20T02:41:51.805Z,26.45
2022-12-20T02:42:07.791Z,26.70
2022-12-20T02:42:25.031Z,26.55
2022-12-20T02:42:37.840Z,26.80
2022-12-20T02:42:54.393Z,26.73
2022-12-20T02:43:31.736Z,26.73
2022-12-20T02:44:06.401Z,25.35
2022-12-20T02:44:43.044Z,26.05
2022-12-20T02:45:19.701Z,25.92
2022-12-20T02:45:36.819Z,26.17
2022-12-20T02:45:50.589Z,26.13
2022-12-20T02:46:04.274Z,26.33
2022-12-20T02:46:19.828Z,26.42
2022-12-20T02:46:34.829Z,26.10
2022-12-20T02:46:49.933Z,25.98
2022-12-20T02:47:05.814Z,26.00
2022-12-20T02:47:22.873Z,25.45
2022-12-20T02:47:40.204Z,25.55
2022-12-20T02:47:59.157Z,26.40
2022-12-20T02:48:12.044Z,26.25
2022-12-20T02:48:27.502Z,25.50
2022-12-20T02:48:42.153Z,25.77
2022-12-20T02:48:59.289Z,25.70
2022-12-20T02:49:16.710Z,25.77
2022-12-20T02:49:32.596Z,26.20
2022-12-20T02:49:47.372Z,25.85
2022-12-20T02:50:00.983Z,26.05
2022-12-20T02:50:15.221Z,26.70
2022-12-20T02:50:33.966Z,26.85
2022-12-20T02:50:50.340Z,26.55
2022-12-20T02:51:06.180Z,26.33
2022-12-20T02:51:21.644Z,26.75
2022-12-20T02:51:35.187Z,26.40
2022-12-20T02:51:52.205Z,26.02
2022-12-20T02:52:08.564Z,26.23
2022-12-20T02:52:25.263Z,26.75
2022-12-20T02:52:39.129Z,26.50
2022-12-20T02:52:53.497Z,26.33
2022-12-20T02:53:07.683Z,26.35
2022-12-20T02:53:22.390Z,25.90
2022-12-20T02:53:36.453Z,25.63
2022-12-20T02:53:49.257Z,26.13
2022-12-20T02:54:02.493Z,26.30
2022-12-20T02:54:16.101Z,25.77
2022-12-20T02:54:29.915Z,25.92
2022-12-20T02:54:42.655Z,26.10
2022-12-20T02:54:55.808Z,26.27
2022-12-20T02:55:09.212Z,26.88
2022-12-20T02:55:27.766Z,26.67
2022-12-20T02:55:46.572Z,25.83
2022-12-20T02:56:04.862Z,25.27
2022-12-20T02:56:24.092Z,25.90
2022-12-20T02:56:43.396Z,25.80
2022-12-20T02:57:00.613Z,26.40
2022-12-20T02:57:20.601Z,26.60
2022-12-20T02:57:44.169Z,26.23
2022-12-20T02:58:01.009Z,26.42
2022-12-20T02:58:27.008Z,26.35
2022-12-20T02:58:48.516Z,25.67
2022-12-20T02:59:06.600Z,26.00
2022-12-20T02:59:23.590Z,26.00
2022-12-20T02:59:41.428Z,26.35
2022-12-20T03:00:03.803Z,25.40
2022-12-20T03:00:18.885Z,25.50
2022-12-20T03:00:38.519Z,26.20
2022-12-20T03:00:51.658Z,25.42
2022-12-20T03:01:09.210Z,25.33
2022-12-20T03:01:28.248Z,25.90
2022-12-20T03:01:45.460Z,26.02
2022-12-20T03:01:58.805Z,26.38
2022-12-20T03:02:13.302Z,26.42
2022-12-20T03:02:26.832Z,25.45
2022-12-20T03:03:00.782Z,25.05
2022-12-20T03:03:23.315Z,25.45
2022-12-20T03:03:38.053Z,25.77
2022-12-20T03:03:52.370Z,25.50
2022-12-20T03:04:05.899Z,25.23
2022-12-20T03:04:21.486Z,25.50
2022-12-20T03:04:39.444Z,25.15
2022-12-20T03:04:53.618Z,25.17
2022-12-20T03:05:07.803Z,24.98
2022-12-20T03:05:22.679Z,25.15
2022-12-20T03:05:43.370Z,25.63
2022-12-20T03:05:57.140Z,24.75
2022-12-20T03:06:09.847Z,25.20
2022-12-20T03:06:22.486Z,25.54
2022-12-20T03:06:36.082Z,25.52
2022-12-20T03:07:00.590Z,24.67
2022-12-20T03:07:14.871Z,25.63
2022-12-20T03:07:29.601Z,25.92
2022-12-20T03:07:42.195Z,25.73
2022-12-20T03:07:55.477Z,26.08
2022-12-20T03:08:08.268Z,25.88
2022-12-20T03:08:23.675Z,25.80
2022-12-20T03:08:36.605Z,26.05
2022-12-20T03:08:49.210Z,25.65
2022-12-20T03:09:01.804Z,25.40
2022-12-20T03:09:14.489Z,25.48
2022-12-20T03:09:27.210Z,25.88
2022-12-20T03:09:41.650Z,26.13
2022-12-20T03:09:55.267Z,26.77
2022-12-20T03:10:09.246Z,26.52
2022-12-20T03:10:22.966Z,25.42
2022-12-20T03:10:35.590Z,25.55
2022-12-20T03:10:48.677Z,25.38
2022-12-20T03:11:01.251Z,25.27
2022-12-20T03:11:14.223Z,25.50
2022-12-20T03:11:27.899Z,26.02
2022-12-20T03:11:40.489Z,25.73
2022-12-20T03:11:53.978Z,25.55
2022-12-20T03:12:07.307Z,25.92
2022-12-20T03:12:19.879Z,25.27
2022-12-20T03:12:32.478Z,25.75
2022-12-20T03:12:45.345Z,26.88
2022-12-20T03:12:58.898Z,26.85
2022-12-20T03:13:11.570Z,25.83
2022-12-20T03:13:25.313Z,25.33
2022-12-20T03:13:37.951Z,25.80
2022-12-20T03:13:50.676Z,26.40
2022-12-20T03:14:04.281Z,25.95